Boyer, Iowa
Current Conditions -  °F | °C
As of 4:35 PM on Wednesday 22 Oct 2014 (Local Time) from KDNS Reporting Station
Clear Clear  
Wind Chill: 70°   Ceiling: Unl
Heat Index: 70°   Visibility: 10mi
Dew Point: 52°   Wind: 14mph
Humidity: 53%   Direction: 150°SSE
Pressure: 29.99"   Gusts: 23mph
Location:  42.167°N, 95.303°W
Report Text: KDNS 222135Z AUTO 15012G20KT 10SM CLR 21/11 A2999 RMK AO2
Loading
Personal Weather Stations






























Interactive Weather Map
Tropical Storm Tracking
New forecast layout! Learn more

10-Day Weather Forecast

Advertisements
Track Severe Weather on mobile